sensor_id;sensor_type;location;lat;lon;timestamp;P1;durP1;ratioP1;P2;durP2;ratioP2
50932;SDS011;36921;49.006;9.292;2023-12-20T00:01:17;17.25;;;8.77;;
50932;SDS011;36921;49.006;9.292;2023-12-20T00:03:42;14.65;;;7.40;;
50932;SDS011;36921;49.006;9.292;2023-12-20T00:06:08;16.55;;;7.85;;
50932;SDS011;36921;49.006;9.292;2023-12-20T00:08:33;13.65;;;7.30;;
50932;SDS011;36921;49.006;9.292;2023-12-20T00:10:59;14.95;;;7.47;;
50932;SDS011;36921;49.006;9.292;2023-12-20T00:13:24;12.95;;;7.28;;
50932;SDS011;36921;49.006;9.292;2023-12-20T00:15:49;13.15;;;6.82;;
50932;SDS011;36921;49.006;9.292;2023-12-20T00:18:14;14.23;;;7.00;;
50932;SDS011;36921;49.006;9.292;2023-12-20T00:20:40;12.80;;;7.55;;
50932;SDS011;36921;49.006;9.292;2023-12-20T00:23:05;11.23;;;6.80;;
50932;SDS011;36921;49.006;9.292;2023-12-20T00:25:31;10.63;;;6.93;;
50932;SDS011;36921;49.006;9.292;2023-12-20T00:27:56;12.57;;;7.10;;
50932;SDS011;36921;49.006;9.292;2023-12-20T00:30:21;17.55;;;8.40;;
50932;SDS011;36921;49.006;9.292;2023-12-20T00:32:46;16.63;;;9.20;;
50932;SDS011;36921;49.006;9.292;2023-12-20T00:35:15;16.02;;;8.88;;
50932;SDS011;36921;49.006;9.292;2023-12-20T00:37:42;18.77;;;10.38;;
50932;SDS011;36921;49.006;9.292;2023-12-20T00:40:08;19.25;;;11.25;;
50932;SDS011;36921;49.006;9.292;2023-12-20T00:42:34;20.83;;;11.10;;
50932;SDS011;36921;49.006;9.292;2023-12-20T00:45:00;20.35;;;9.80;;
50932;SDS011;36921;49.006;9.292;2023-12-20T00:47:26;18.90;;;10.30;;
50932;SDS011;36921;49.006;9.292;2023-12-20T00:49:51;16.20;;;9.27;;
50932;SDS011;36921;49.006;9.292;2023-12-20T00:52:16;19.17;;;10.40;;
50932;SDS011;36921;49.006;9.292;2023-12-20T00:54:42;19.65;;;10.32;;
50932;SDS011;36921;49.006;9.292;2023-12-20T00:57:08;16.50;;;9.52;;
50932;SDS011;36921;49.006;9.292;2023-12-20T00:59:34;17.77;;;10.52;;
50932;SDS011;36921;49.006;9.292;2023-12-20T01:01:59;19.23;;;10.05;;
50932;SDS011;36921;49.006;9.292;2023-12-20T01:04:24;19.30;;;10.40;;
50932;SDS011;36921;49.006;9.292;2023-12-20T01:06:50;15.75;;;9.38;;
50932;SDS011;36921;49.006;9.292;2023-12-20T01:09:15;17.55;;;9.18;;
50932;SDS011;36921;49.006;9.292;2023-12-20T01:11:40;16.60;;;9.18;;
50932;SDS011;36921;49.006;9.292;2023-12-20T01:14:06;18.13;;;9.07;;
50932;SDS011;36921;49.006;9.292;2023-12-20T01:16:31;16.88;;;9.75;;
50932;SDS011;36921;49.006;9.292;2023-12-20T01:18:56;21.73;;;10.38;;
50932;SDS011;36921;49.006;9.292;2023-12-20T01:21:22;18.08;;;10.52;;
50932;SDS011;36921;49.006;9.292;2023-12-20T01:23:47;18.05;;;9.60;;
50932;SDS011;36921;49.006;9.292;2023-12-20T01:26:12;18.40;;;8.90;;
50932;SDS011;36921;49.006;9.292;2023-12-20T01:28:38;17.75;;;9.75;;
50932;SDS011;36921;49.006;9.292;2023-12-20T01:31:03;17.05;;;9.63;;
50932;SDS011;36921;49.006;9.292;2023-12-20T01:33:29;18.10;;;9.43;;
50932;SDS011;36921;49.006;9.292;2023-12-20T01:35:54;17.45;;;9.60;;
50932;SDS011;36921;49.006;9.292;2023-12-20T01:38:19;22.63;;;9.90;;
50932;SDS011;36921;49.006;9.292;2023-12-20T01:40:45;18.35;;;10.07;;
50932;SDS011;36921;49.006;9.292;2023-12-20T01:43:10;17.60;;;9.43;;
50932;SDS011;36921;49.006;9.292;2023-12-20T01:45:37;15.90;;;8.90;;
50932;SDS011;36921;49.006;9.292;2023-12-20T01:48:02;17.83;;;10.65;;
50932;SDS011;36921;49.006;9.292;2023-12-20T01:50:29;19.25;;;9.85;;
50932;SDS011;36921;49.006;9.292;2023-12-20T01:52:56;20.35;;;10.60;;
50932;SDS011;36921;49.006;9.292;2023-12-20T01:55:25;20.83;;;9.98;;
50932;SDS011;36921;49.006;9.292;2023-12-20T01:57:52;17.98;;;10.50;;
50932;SDS011;36921;49.006;9.292;2023-12-20T02:00:18;17.83;;;9.95;;
50932;SDS011;36921;49.006;9.292;2023-12-20T02:02:48;18.70;;;10.35;;
50932;SDS011;36921;49.006;9.292;2023-12-20T02:05:15;14.48;;;8.52;;
50932;SDS011;36921;49.006;9.292;2023-12-20T02:07:41;15.10;;;8.50;;
50932;SDS011;36921;49.006;9.292;2023-12-20T02:10:07;14.10;;;7.38;;
50932;SDS011;36921;49.006;9.292;2023-12-20T02:12:33;8.40;;;4.75;;
50932;SDS011;36921;49.006;9.292;2023-12-20T02:14:58;8.07;;;3.83;;
50932;SDS011;36921;49.006;9.292;2023-12-20T02:17:23;4.78;;;2.70;;
50932;SDS011;36921;49.006;9.292;2023-12-20T02:19:50;6.10;;;3.10;;
50932;SDS011;36921;49.006;9.292;2023-12-20T02:22:15;4.00;;;2.28;;
50932;SDS011;36921;49.006;9.292;2023-12-20T02:24:40;2.53;;;1.50;;
50932;SDS011;36921;49.006;9.292;2023-12-20T02:27:06;2.13;;;1.50;;
50932;SDS011;36921;49.006;9.292;2023-12-20T02:29:33;1.40;;;1.00;;
50932;SDS011;36921;49.006;9.292;2023-12-20T02:31:59;4.43;;;1.15;;
50932;SDS011;36921;49.006;9.292;2023-12-20T02:34:24;0.88;;;0.70;;
50932;SDS011;36921;49.006;9.292;2023-12-20T02:36:49;0.95;;;0.68;;
50932;SDS011;36921;49.006;9.292;2023-12-20T02:39:15;1.13;;;0.60;;
50932;SDS011;36921;49.006;9.292;2023-12-20T02:41:40;1.27;;;0.63;;
50932;SDS011;36921;49.006;9.292;2023-12-20T02:44:06;1.23;;;0.70;;
50932;SDS011;36921;49.006;9.292;2023-12-20T02:46:31;2.25;;;0.77;;
50932;SDS011;36921;49.006;9.292;2023-12-20T02:48:56;0.40;;;0.40;;
50932;SDS011;36921;49.006;9.292;2023-12-20T02:51:21;1.13;;;0.65;;
50932;SDS011;36921;49.006;9.292;2023-12-20T02:53:47;1.73;;;0.68;;
50932;SDS011;36921;49.006;9.292;2023-12-20T02:56:12;1.30;;;0.57;;
50932;SDS011;36921;49.006;9.292;2023-12-20T02:58:38;1.13;;;0.60;;
50932;SDS011;36921;49.006;9.292;2023-12-20T03:01:03;1.05;;;0.60;;
50932;SDS011;36921;49.006;9.292;2023-12-20T03:03:29;0.68;;;0.50;;
50932;SDS011;36921;49.006;9.292;2023-12-20T03:05:54;0.50;;;0.50;;
50932;SDS011;36921;49.006;9.292;2023-12-20T03:08:20;0.70;;;0.50;;
50932;SDS011;36921;49.006;9.292;2023-12-20T03:10:45;0.95;;;0.73;;
50932;SDS011;36921;49.006;9.292;2023-12-20T03:13:11;0.80;;;0.50;;
50932;SDS011;36921;49.006;9.292;2023-12-20T03:15:36;1.13;;;0.50;;
50932;SDS011;36921;49.006;9.292;2023-12-20T03:18:02;0.65;;;0.43;;
50932;SDS011;36921;49.006;9.292;2023-12-20T03:20:27;0.63;;;0.28;;
50932;SDS011;36921;49.006;9.292;2023-12-20T03:22:53;2.70;;;0.50;;
50932;SDS011;36921;49.006;9.292;2023-12-20T03:25:18;0.63;;;0.40;;
50932;SDS011;36921;49.006;9.292;2023-12-20T03:27:43;0.50;;;0.35;;
50932;SDS011;36921;49.006;9.292;2023-12-20T03:30:09;0.85;;;0.40;;
50932;SDS011;36921;49.006;9.292;2023-12-20T03:32:34;0.77;;;0.40;;
50932;SDS011;36921;49.006;9.292;2023-12-20T03:35:00;0.38;;;0.32;;
50932;SDS011;36921;49.006;9.292;2023-12-20T03:37:25;0.73;;;0.40;;
50932;SDS011;36921;49.006;9.292;2023-12-20T03:39:50;1.13;;;0.50;;
50932;SDS011;36921;49.006;9.292;2023-12-20T03:42:16;0.50;;;0.30;;
50932;SDS011;36921;49.006;9.292;2023-12-20T03:44:41;0.38;;;0.30;;
50932;SDS011;36921;49.006;9.292;2023-12-20T03:47:06;1.25;;;0.40;;
50932;SDS011;36921;49.006;9.292;2023-12-20T03:49:32;0.95;;;0.45;;
50932;SDS011;36921;49.006;9.292;2023-12-20T03:51:57;0.30;;;0.22;;
50932;SDS011;36921;49.006;9.292;2023-12-20T03:54:22;0.65;;;0.38;;
50932;SDS011;36921;49.006;9.292;2023-12-20T03:56:47;1.35;;;0.50;;
50932;SDS011;36921;49.006;9.292;2023-12-20T03:59:13;1.13;;;0.50;;
50932;SDS011;36921;49.006;9.292;2023-12-20T04:01:39;0.75;;;0.40;;
50932;SDS011;36921;49.006;9.292;2023-12-20T04:06:33;1.10;;;0.60;;
50932;SDS011;36921;49.006;9.292;2023-12-20T04:08:59;0.60;;;0.30;;
50932;SDS011;36921;49.006;9.292;2023-12-20T04:11:24;0.88;;;0.47;;
50932;SDS011;36921;49.006;9.292;2023-12-20T04:13:50;0.77;;;0.60;;
50932;SDS011;36921;49.006;9.292;2023-12-20T04:16:15;0.52;;;0.35;;
50932;SDS011;36921;49.006;9.292;2023-12-20T04:18:40;0.85;;;0.50;;
50932;SDS011;36921;49.006;9.292;2023-12-20T04:21:06;1.02;;;0.63;;
50932;SDS011;36921;49.006;9.292;2023-12-20T04:23:32;0.40;;;0.32;;
50932;SDS011;36921;49.006;9.292;2023-12-20T04:25:57;0.50;;;0.40;;
50932;SDS011;36921;49.006;9.292;2023-12-20T04:28:22;0.60;;;0.40;;
50932;SDS011;36921;49.006;9.292;2023-12-20T04:30:48;0.82;;;0.40;;
50932;SDS011;36921;49.006;9.292;2023-12-20T04:33:13;0.68;;;0.40;;
50932;SDS011;36921;49.006;9.292;2023-12-20T04:35:38;0.47;;;0.40;;
50932;SDS011;36921;49.006;9.292;2023-12-20T04:38:05;0.30;;;0.30;;
50932;SDS011;36921;49.006;9.292;2023-12-20T04:40:31;1.00;;;0.57;;
50932;SDS011;36921;49.006;9.292;2023-12-20T04:42:56;0.60;;;0.40;;
50932;SDS011;36921;49.006;9.292;2023-12-20T04:45:21;1.00;;;0.70;;
50932;SDS011;36921;49.006;9.292;2023-12-20T04:47:48;0.88;;;0.55;;
50932;SDS011;36921;49.006;9.292;2023-12-20T04:50:13;1.25;;;0.70;;
50932;SDS011;36921;49.006;9.292;2023-12-20T04:52:39;0.88;;;0.50;;
50932;SDS011;36921;49.006;9.292;2023-12-20T04:55:05;0.75;;;0.47;;
50932;SDS011;36921;49.006;9.292;2023-12-20T04:57:30;0.98;;;0.60;;
50932;SDS011;36921;49.006;9.292;2023-12-20T04:59:55;1.58;;;0.80;;
50932;SDS011;36921;49.006;9.292;2023-12-20T05:02:21;1.85;;;0.90;;
50932;SDS011;36921;49.006;9.292;2023-12-20T05:04:46;2.70;;;0.88;;
50932;SDS011;36921;49.006;9.292;2023-12-20T05:07:11;1.45;;;0.82;;
50932;SDS011;36921;49.006;9.292;2023-12-20T05:09:37;1.20;;;0.70;;
50932;SDS011;36921;49.006;9.292;2023-12-20T05:12:02;1.17;;;0.90;;
50932;SDS011;36921;49.006;9.292;2023-12-20T05:14:27;1.48;;;0.88;;
50932;SDS011;36921;49.006;9.292;2023-12-20T05:16:53;1.38;;;0.88;;
50932;SDS011;36921;49.006;9.292;2023-12-20T05:19:18;1.38;;;0.90;;
50932;SDS011;36921;49.006;9.292;2023-12-20T05:21:44;1.63;;;1.00;;
50932;SDS011;36921;49.006;9.292;2023-12-20T05:24:09;1.38;;;1.10;;
50932;SDS011;36921;49.006;9.292;2023-12-20T05:26:34;2.40;;;1.33;;
50932;SDS011;36921;49.006;9.292;2023-12-20T05:28:59;2.00;;;1.20;;
50932;SDS011;36921;49.006;9.292;2023-12-20T05:31:25;1.90;;;1.40;;
50932;SDS011;36921;49.006;9.292;2023-12-20T05:33:50;3.78;;;1.60;;
50932;SDS011;36921;49.006;9.292;2023-12-20T05:36:15;2.33;;;1.70;;
50932;SDS011;36921;49.006;9.292;2023-12-20T05:38:41;3.65;;;1.95;;
50932;SDS011;36921;49.006;9.292;2023-12-20T05:41:06;2.70;;;1.58;;
50932;SDS011;36921;49.006;9.292;2023-12-20T05:43:31;2.53;;;1.60;;
50932;SDS011;36921;49.006;9.292;2023-12-20T05:45:57;3.38;;;2.00;;
50932;SDS011;36921;49.006;9.292;2023-12-20T05:48:23;3.78;;;1.90;;
50932;SDS011;36921;49.006;9.292;2023-12-20T05:50:48;2.47;;;1.80;;
50932;SDS011;36921;49.006;9.292;2023-12-20T05:53:14;2.35;;;1.85;;
50932;SDS011;36921;49.006;9.292;2023-12-20T05:55:39;2.70;;;1.80;;
50932;SDS011;36921;49.006;9.292;2023-12-20T05:58:05;2.38;;;1.70;;
50932;SDS011;36921;49.006;9.292;2023-12-20T06:00:30;2.80;;;1.80;;
50932;SDS011;36921;49.006;9.292;2023-12-20T06:02:55;2.90;;;1.90;;
50932;SDS011;36921;49.006;9.292;2023-12-20T06:05:21;4.10;;;1.80;;
50932;SDS011;36921;49.006;9.292;2023-12-20T06:07:46;2.88;;;1.83;;
50932;SDS011;36921;49.006;9.292;2023-12-20T06:10:13;3.08;;;1.80;;
50932;SDS011;36921;49.006;9.292;2023-12-20T06:12:39;2.33;;;1.40;;
50932;SDS011;36921;49.006;9.292;2023-12-20T06:15:04;2.35;;;1.52;;
50932;SDS011;36921;49.006;9.292;2023-12-20T06:17:30;3.80;;;1.92;;
50932;SDS011;36921;49.006;9.292;2023-12-20T06:19:56;3.67;;;2.20;;
50932;SDS011;36921;49.006;9.292;2023-12-20T06:22:21;3.60;;;2.22;;
50932;SDS011;36921;49.006;9.292;2023-12-20T06:24:47;3.40;;;2.08;;
50932;SDS011;36921;49.006;9.292;2023-12-20T06:27:12;3.67;;;1.98;;
50932;SDS011;36921;49.006;9.292;2023-12-20T06:29:37;3.28;;;2.00;;
50932;SDS011;36921;49.006;9.292;2023-12-20T06:32:03;4.47;;;2.53;;
50932;SDS011;36921;49.006;9.292;2023-12-20T06:34:29;4.25;;;2.05;;
50932;SDS011;36921;49.006;9.292;2023-12-20T06:36:54;4.28;;;2.70;;
50932;SDS011;36921;49.006;9.292;2023-12-20T06:39:19;5.28;;;2.50;;
50932;SDS011;36921;49.006;9.292;2023-12-20T06:41:44;4.38;;;2.45;;
50932;SDS011;36921;49.006;9.292;2023-12-20T06:44:10;3.67;;;2.30;;
50932;SDS011;36921;49.006;9.292;2023-12-20T06:46:35;4.00;;;2.42;;
50932;SDS011;36921;49.006;9.292;2023-12-20T06:49:00;3.25;;;2.22;;
50932;SDS011;36921;49.006;9.292;2023-12-20T06:51:25;6.72;;;2.83;;
50932;SDS011;36921;49.006;9.292;2023-12-20T06:53:51;5.22;;;2.92;;
50932;SDS011;36921;49.006;9.292;2023-12-20T06:56:17;5.00;;;3.05;;
50932;SDS011;36921;49.006;9.292;2023-12-20T06:58:42;5.32;;;3.30;;
50932;SDS011;36921;49.006;9.292;2023-12-20T07:01:11;4.43;;;3.03;;
50932;SDS011;36921;49.006;9.292;2023-12-20T07:03:40;5.45;;;3.80;;
50932;SDS011;36921;49.006;9.292;2023-12-20T07:06:06;5.97;;;3.50;;
50932;SDS011;36921;49.006;9.292;2023-12-20T07:08:31;5.10;;;3.53;;
50932;SDS011;36921;49.006;9.292;2023-12-20T07:10:56;5.13;;;3.58;;
50932;SDS011;36921;49.006;9.292;2023-12-20T07:13:22;5.55;;;3.70;;
50932;SDS011;36921;49.006;9.292;2023-12-20T07:15:47;5.38;;;3.70;;
50932;SDS011;36921;49.006;9.292;2023-12-20T07:18:13;8.20;;;3.90;;
50932;SDS011;36921;49.006;9.292;2023-12-20T07:20:38;5.80;;;3.97;;
50932;SDS011;36921;49.006;9.292;2023-12-20T07:23:04;6.43;;;3.40;;
50932;SDS011;36921;49.006;9.292;2023-12-20T07:25:29;5.07;;;3.35;;
50932;SDS011;36921;49.006;9.292;2023-12-20T07:27:57;5.43;;;3.72;;
50932;SDS011;36921;49.006;9.292;2023-12-20T07:30:23;6.13;;;3.95;;
50932;SDS011;36921;49.006;9.292;2023-12-20T07:32:48;4.75;;;3.40;;
50932;SDS011;36921;49.006;9.292;2023-12-20T07:35:14;7.28;;;3.33;;
50932;SDS011;36921;49.006;9.292;2023-12-20T07:37:40;6.88;;;4.25;;
50932;SDS011;36921;49.006;9.292;2023-12-20T07:40:06;9.60;;;5.00;;
50932;SDS011;36921;49.006;9.292;2023-12-20T07:42:32;6.82;;;3.80;;
50932;SDS011;36921;49.006;9.292;2023-12-20T07:44:57;6.35;;;4.57;;
50932;SDS011;36921;49.006;9.292;2023-12-20T07:47:23;5.18;;;3.30;;
50932;SDS011;36921;49.006;9.292;2023-12-20T07:49:50;6.82;;;4.20;;
50932;SDS011;36921;49.006;9.292;2023-12-20T07:52:16;9.90;;;4.88;;
50932;SDS011;36921;49.006;9.292;2023-12-20T07:54:42;12.93;;;7.13;;
50932;SDS011;36921;49.006;9.292;2023-12-20T07:57:07;6.43;;;4.07;;
50932;SDS011;36921;49.006;9.292;2023-12-20T07:59:32;7.45;;;3.58;;
50932;SDS011;36921;49.006;9.292;2023-12-20T08:01:58;5.60;;;3.50;;
50932;SDS011;36921;49.006;9.292;2023-12-20T08:04:23;7.45;;;4.50;;
50932;SDS011;36921;49.006;9.292;2023-12-20T08:06:50;5.20;;;3.72;;
50932;SDS011;36921;49.006;9.292;2023-12-20T08:09:15;4.65;;;3.17;;
50932;SDS011;36921;49.006;9.292;2023-12-20T08:11:44;4.20;;;3.15;;
50932;SDS011;36921;49.006;9.292;2023-12-20T08:14:10;4.07;;;3.08;;
50932;SDS011;36921;49.006;9.292;2023-12-20T08:16:36;4.50;;;3.08;;
50932;SDS011;36921;49.006;9.292;2023-12-20T08:19:01;4.53;;;3.00;;
50932;SDS011;36921;49.006;9.292;2023-12-20T08:21:26;4.05;;;2.60;;
50932;SDS011;36921;49.006;9.292;2023-12-20T08:23:52;4.80;;;2.70;;
50932;SDS011;36921;49.006;9.292;2023-12-20T08:26:21;4.63;;;2.42;;
50932;SDS011;36921;49.006;9.292;2023-12-20T08:28:49;4.00;;;2.67;;
50932;SDS011;36921;49.006;9.292;2023-12-20T08:31:15;5.70;;;3.05;;
50932;SDS011;36921;49.006;9.292;2023-12-20T08:33:43;4.80;;;3.25;;
50932;SDS011;36921;49.006;9.292;2023-12-20T08:36:09;4.30;;;2.30;;
50932;SDS011;36921;49.006;9.292;2023-12-20T08:38:34;2.92;;;2.25;;
50932;SDS011;36921;49.006;9.292;2023-12-20T08:41:00;4.15;;;2.58;;
50932;SDS011;36921;49.006;9.292;2023-12-20T08:43:26;3.75;;;2.40;;
50932;SDS011;36921;49.006;9.292;2023-12-20T08:45:51;4.95;;;2.40;;
50932;SDS011;36921;49.006;9.292;2023-12-20T08:48:16;4.30;;;2.30;;
50932;SDS011;36921;49.006;9.292;2023-12-20T08:50:42;3.20;;;2.00;;
50932;SDS011;36921;49.006;9.292;2023-12-20T08:53:08;3.38;;;2.10;;
50932;SDS011;36921;49.006;9.292;2023-12-20T08:55:33;4.30;;;2.10;;
50932;SDS011;36921;49.006;9.292;2023-12-20T08:57:59;3.03;;;1.73;;
50932;SDS011;36921;49.006;9.292;2023-12-20T09:00:24;3.95;;;1.92;;
50932;SDS011;36921;49.006;9.292;2023-12-20T09:02:52;7.38;;;1.63;;
50932;SDS011;36921;49.006;9.292;2023-12-20T09:05:18;4.43;;;1.55;;
50932;SDS011;36921;49.006;9.292;2023-12-20T09:07:43;4.65;;;1.35;;
50932;SDS011;36921;49.006;9.292;2023-12-20T09:10:08;1.65;;;1.08;;
50932;SDS011;36921;49.006;9.292;2023-12-20T09:12:34;0.82;;;0.70;;
50932;SDS011;36921;49.006;9.292;2023-12-20T09:14:59;2.75;;;1.02;;
50932;SDS011;36921;49.006;9.292;2023-12-20T09:17:27;1.80;;;1.17;;
50932;SDS011;36921;49.006;9.292;2023-12-20T09:19:52;3.28;;;0.95;;
50932;SDS011;36921;49.006;9.292;2023-12-20T09:22:19;1.73;;;0.77;;
50932;SDS011;36921;49.006;9.292;2023-12-20T09:24:44;1.85;;;0.93;;
50932;SDS011;36921;49.006;9.292;2023-12-20T09:27:09;2.33;;;1.10;;
50932;SDS011;36921;49.006;9.292;2023-12-20T09:29:35;2.28;;;1.20;;
50932;SDS011;36921;49.006;9.292;2023-12-20T09:32:00;6.75;;;2.03;;
50932;SDS011;36921;49.006;9.292;2023-12-20T09:34:26;2.25;;;1.63;;
50932;SDS011;36921;49.006;9.292;2023-12-20T09:36:52;3.22;;;1.67;;
50932;SDS011;36921;49.006;9.292;2023-12-20T09:39:18;4.25;;;1.13;;
50932;SDS011;36921;49.006;9.292;2023-12-20T09:41:45;3.08;;;1.60;;
50932;SDS011;36921;49.006;9.292;2023-12-20T09:44:15;4.18;;;1.77;;
50932;SDS011;36921;49.006;9.292;2023-12-20T09:46:44;3.90;;;1.63;;
50932;SDS011;36921;49.006;9.292;2023-12-20T09:49:11;2.30;;;1.40;;
50932;SDS011;36921;49.006;9.292;2023-12-20T09:51:37;5.15;;;1.45;;
50932;SDS011;36921;49.006;9.292;2023-12-20T09:54:03;5.25;;;1.60;;
50932;SDS011;36921;49.006;9.292;2023-12-20T09:56:29;10.15;;;3.40;;
50932;SDS011;36921;49.006;9.292;2023-12-20T09:58:55;8.90;;;3.25;;
50932;SDS011;36921;49.006;9.292;2023-12-20T10:01:21;12.93;;;5.95;;
50932;SDS011;36921;49.006;9.292;2023-12-20T10:03:47;4.35;;;1.50;;
50932;SDS011;36921;49.006;9.292;2023-12-20T10:06:12;3.42;;;1.77;;
50932;SDS011;36921;49.006;9.292;2023-12-20T10:08:38;7.55;;;1.90;;
50932;SDS011;36921;49.006;9.292;2023-12-20T10:11:04;2.88;;;1.13;;
50932;SDS011;36921;49.006;9.292;2023-12-20T10:13:30;15.77;;;7.22;;
50932;SDS011;36921;49.006;9.292;2023-12-20T10:15:56;5.10;;;2.10;;
50932;SDS011;36921;49.006;9.292;2023-12-20T10:18:22;3.75;;;0.80;;
50932;SDS011;36921;49.006;9.292;2023-12-20T10:20:48;1.90;;;0.80;;
50932;SDS011;36921;49.006;9.292;2023-12-20T10:23:13;4.55;;;1.10;;
50932;SDS011;36921;49.006;9.292;2023-12-20T10:25:42;5.22;;;0.90;;
50932;SDS011;36921;49.006;9.292;2023-12-20T10:28:15;4.18;;;0.90;;
50932;SDS011;36921;49.006;9.292;2023-12-20T10:30:44;6.50;;;1.00;;
50932;SDS011;36921;49.006;9.292;2023-12-20T10:33:09;8.77;;;1.30;;
50932;SDS011;36921;49.006;9.292;2023-12-20T10:35:38;5.05;;;0.90;;
50932;SDS011;36921;49.006;9.292;2023-12-20T10:38:05;1.97;;;0.67;;
50932;SDS011;36921;49.006;9.292;2023-12-20T10:40:32;5.53;;;1.40;;
50932;SDS011;36921;49.006;9.292;2023-12-20T10:42:59;5.40;;;1.97;;
50932;SDS011;36921;49.006;9.292;2023-12-20T10:45:27;3.97;;;1.20;;
50932;SDS011;36921;49.006;9.292;2023-12-20T10:47:52;6.22;;;1.05;;
50932;SDS011;36921;49.006;9.292;2023-12-20T10:50:18;5.82;;;0.90;;
50932;SDS011;36921;49.006;9.292;2023-12-20T10:52:44;6.13;;;0.90;;
50932;SDS011;36921;49.006;9.292;2023-12-20T10:58:00;4.95;;;0.93;;
50932;SDS011;36921;49.006;9.292;2023-12-20T11:00:26;4.97;;;1.33;;
50932;SDS011;36921;49.006;9.292;2023-12-20T11:02:53;3.40;;;1.00;;
50932;SDS011;36921;49.006;9.292;2023-12-20T11:08:17;7.22;;;1.00;;
50932;SDS011;36921;49.006;9.292;2023-12-20T11:13:45;1.90;;;0.80;;
50932;SDS011;36921;49.006;9.292;2023-12-20T11:16:19;6.28;;;1.10;;
50932;SDS011;36921;49.006;9.292;2023-12-20T11:18:46;4.40;;;0.90;;
50932;SDS011;36921;49.006;9.292;2023-12-20T11:21:12;5.35;;;1.48;;
50932;SDS011;36921;49.006;9.292;2023-12-20T11:23:39;6.80;;;1.27;;
50932;SDS011;36921;49.006;9.292;2023-12-20T11:26:07;7.47;;;1.05;;
50932;SDS011;36921;49.006;9.292;2023-12-20T11:28:33;7.65;;;0.98;;
50932;SDS011;36921;49.006;9.292;2023-12-20T11:30:58;2.60;;;0.98;;
50932;SDS011;36921;49.006;9.292;2023-12-20T11:33:27;9.25;;;0.93;;
50932;SDS011;36921;49.006;9.292;2023-12-20T11:38:21;8.70;;;1.10;;
50932;SDS011;36921;49.006;9.292;2023-12-20T11:40:50;3.00;;;1.08;;
50932;SDS011;36921;49.006;9.292;2023-12-20T11:46:08;6.93;;;0.90;;
50932;SDS011;36921;49.006;9.292;2023-12-20T11:48:35;2.85;;;0.75;;
50932;SDS011;36921;49.006;9.292;2023-12-20T11:51:02;5.10;;;1.00;;
50932;SDS011;36921;49.006;9.292;2023-12-20T11:53:34;2.10;;;0.95;;
50932;SDS011;36921;49.006;9.292;2023-12-20T11:55:59;2.72;;;1.00;;
50932;SDS011;36921;49.006;9.292;2023-12-20T11:58:25;7.75;;;1.00;;
50932;SDS011;36921;49.006;9.292;2023-12-20T12:00:50;5.32;;;0.90;;
50932;SDS011;36921;49.006;9.292;2023-12-20T12:03:16;7.13;;;1.30;;
50932;SDS011;36921;49.006;9.292;2023-12-20T12:05:42;5.10;;;1.38;;
50932;SDS011;36921;49.006;9.292;2023-12-20T12:08:07;6.00;;;1.85;;
50932;SDS011;36921;49.006;9.292;2023-12-20T12:10:33;6.82;;;1.08;;
50932;SDS011;36921;49.006;9.292;2023-12-20T12:12:59;3.53;;;0.85;;
50932;SDS011;36921;49.006;9.292;2023-12-20T12:15:26;7.72;;;1.40;;
50932;SDS011;36921;49.006;9.292;2023-12-20T12:17:54;4.20;;;1.00;;
50932;SDS011;36921;49.006;9.292;2023-12-20T12:20:24;5.55;;;1.00;;
50932;SDS011;36921;49.006;9.292;2023-12-20T12:23:03;4.00;;;1.30;;
50932;SDS011;36921;49.006;9.292;2023-12-20T12:25:30;3.53;;;1.23;;
50932;SDS011;36921;49.006;9.292;2023-12-20T12:27:56;8.40;;;1.60;;
50932;SDS011;36921;49.006;9.292;2023-12-20T12:30:23;4.25;;;1.20;;
50932;SDS011;36921;49.006;9.292;2023-12-20T12:32:50;6.72;;;1.30;;
50932;SDS011;36921;49.006;9.292;2023-12-20T12:35:16;6.97;;;1.63;;
50932;SDS011;36921;49.006;9.292;2023-12-20T12:37:41;6.97;;;1.10;;
50932;SDS011;36921;49.006;9.292;2023-12-20T12:40:09;4.93;;;1.20;;
50932;SDS011;36921;49.006;9.292;2023-12-20T12:42:36;6.15;;;1.90;;
50932;SDS011;36921;49.006;9.292;2023-12-20T12:45:02;12.82;;;1.80;;
50932;SDS011;36921;49.006;9.292;2023-12-20T12:47:27;4.57;;;1.83;;
50932;SDS011;36921;49.006;9.292;2023-12-20T12:49:53;8.50;;;2.35;;
50932;SDS011;36921;49.006;9.292;2023-12-20T12:52:19;7.03;;;2.50;;
50932;SDS011;36921;49.006;9.292;2023-12-20T12:54:45;9.80;;;1.42;;
50932;SDS011;36921;49.006;9.292;2023-12-20T12:57:11;5.50;;;1.70;;
50932;SDS011;36921;49.006;9.292;2023-12-20T12:59:37;6.15;;;1.23;;
50932;SDS011;36921;49.006;9.292;2023-12-20T13:02:02;6.13;;;1.80;;
50932;SDS011;36921;49.006;9.292;2023-12-20T13:04:27;5.97;;;2.08;;
50932;SDS011;36921;49.006;9.292;2023-12-20T13:06:53;8.45;;;1.77;;
50932;SDS011;36921;49.006;9.292;2023-12-20T13:09:18;10.70;;;2.60;;
50932;SDS011;36921;49.006;9.292;2023-12-20T13:11:44;7.10;;;3.55;;
50932;SDS011;36921;49.006;9.292;2023-12-20T13:14:10;18.23;;;8.93;;
50932;SDS011;36921;49.006;9.292;2023-12-20T13:16:40;7.85;;;1.70;;
50932;SDS011;36921;49.006;9.292;2023-12-20T13:19:10;9.07;;;1.70;;
50932;SDS011;36921;49.006;9.292;2023-12-20T13:21:35;9.02;;;1.58;;
50932;SDS011;36921;49.006;9.292;2023-12-20T13:24:01;5.43;;;1.55;;
50932;SDS011;36921;49.006;9.292;2023-12-20T13:26:26;9.77;;;2.10;;
50932;SDS011;36921;49.006;9.292;2023-12-20T13:28:53;10.35;;;2.58;;
50932;SDS011;36921;49.006;9.292;2023-12-20T13:31:19;5.82;;;1.98;;
50932;SDS011;36921;49.006;9.292;2023-12-20T13:33:45;4.85;;;1.52;;
50932;SDS011;36921;49.006;9.292;2023-12-20T13:36:10;7.80;;;2.20;;
50932;SDS011;36921;49.006;9.292;2023-12-20T13:38:36;11.45;;;1.50;;
50932;SDS011;36921;49.006;9.292;2023-12-20T13:41:01;9.48;;;1.40;;
50932;SDS011;36921;49.006;9.292;2023-12-20T13:43:27;8.75;;;1.63;;
50932;SDS011;36921;49.006;9.292;2023-12-20T13:45:53;10.23;;;2.80;;
50932;SDS011;36921;49.006;9.292;2023-12-20T13:48:18;11.15;;;2.97;;
50932;SDS011;36921;49.006;9.292;2023-12-20T13:50:44;7.40;;;1.77;;
50932;SDS011;36921;49.006;9.292;2023-12-20T13:53:09;8.65;;;2.38;;
50932;SDS011;36921;49.006;9.292;2023-12-20T13:55:35;6.35;;;1.30;;
50932;SDS011;36921;49.006;9.292;2023-12-20T13:58:01;6.05;;;1.55;;
50932;SDS011;36921;49.006;9.292;2023-12-20T14:00:26;5.78;;;1.48;;
50932;SDS011;36921;49.006;9.292;2023-12-20T14:02:52;4.32;;;1.10;;
50932;SDS011;36921;49.006;9.292;2023-12-20T14:05:17;6.18;;;1.27;;
50932;SDS011;36921;49.006;9.292;2023-12-20T14:07:43;3.38;;;1.50;;
50932;SDS011;36921;49.006;9.292;2023-12-20T14:10:10;8.05;;;1.75;;
50932;SDS011;36921;49.006;9.292;2023-12-20T14:12:37;2.85;;;1.30;;
50932;SDS011;36921;49.006;9.292;2023-12-20T14:15:03;6.63;;;1.50;;
50932;SDS011;36921;49.006;9.292;2023-12-20T14:17:29;5.28;;;1.75;;
50932;SDS011;36921;49.006;9.292;2023-12-20T14:19:54;5.50;;;1.60;;
50932;SDS011;36921;49.006;9.292;2023-12-20T14:22:20;8.93;;;1.55;;
50932;SDS011;36921;49.006;9.292;2023-12-20T14:24:45;3.28;;;1.25;;
50932;SDS011;36921;49.006;9.292;2023-12-20T14:27:11;8.48;;;1.20;;
50932;SDS011;36921;49.006;9.292;2023-12-20T14:29:37;5.05;;;1.10;;
50932;SDS011;36921;49.006;9.292;2023-12-20T14:32:03;4.50;;;1.02;;
50932;SDS011;36921;49.006;9.292;2023-12-20T14:34:30;5.15;;;1.55;;
50932;SDS011;36921;49.006;9.292;2023-12-20T14:36:55;7.70;;;1.17;;
50932;SDS011;36921;49.006;9.292;2023-12-20T14:39:21;5.57;;;1.70;;
50932;SDS011;36921;49.006;9.292;2023-12-20T14:41:46;8.57;;;1.50;;
50932;SDS011;36921;49.006;9.292;2023-12-20T14:44:12;8.77;;;1.75;;
50932;SDS011;36921;49.006;9.292;2023-12-20T14:46:37;6.50;;;1.80;;
50932;SDS011;36921;49.006;9.292;2023-12-20T14:49:03;4.68;;;1.60;;
50932;SDS011;36921;49.006;9.292;2023-12-20T14:51:29;6.68;;;1.60;;
50932;SDS011;36921;49.006;9.292;2023-12-20T14:53:55;4.53;;;1.73;;